If you wish to contribute or participate in the discussions about articles you are invited to join SKYbrary as a registered user

 Actions

Campina Grande Airport

From SKYbrary Wiki

SBKG
Airport
ICAO: SBKG – IATA: CPV
Summary
Name Campina Grande Airport
Region South America and Caribbean
Territory Brazil BR.gif
Location Campina Grande, Paraiba
Serving Campina Grande
Elevation 501.701 m
1,646 ft501.701 m
Coordinates 7° 16' 9.01" S, 35° 53' 42.00" W
Runways
Designator Length Width Surface ROPS
15/33 1600 m5,249.344 ft
42 m137.795 ft
ASP /


METAR
Observation SBKG 151800Z 12013KT 9999 BKN040 30/18 Q1012
Station Campina Grande
Date/Time 15 December 2019 18:00:00
Wind direction 120°
Wind speed 13 kts
Lowest cloud amount broken clouds
Temperature 30°C
Dew point 18°C
Humidity 48%
QNH 1012 hPa
Weather condition n/a

Presidente João Suassuna Airport is the airport serving Campina Grande, Brazil.

Climatology

Hot semi-arid climate (Köppen climate classification BSh)

Maps

Terrain

Loading map...

Airport Layout

Loading map...


Accidents & Serious Incidents at or in vicinity of SBKG

None on SKYbrary